createdAt,value
2023-05-03T00:01:54.906Z,2.78
2023-05-03T00:04:23.805Z,2.58
2023-05-03T00:06:51.516Z,2.92
2023-05-03T00:09:18.551Z,3.35
2023-05-03T00:11:47.870Z,2.92
2023-05-03T00:14:14.874Z,2.90
2023-05-03T00:16:41.944Z,4.70
2023-05-03T00:19:14.964Z,3.10
2023-05-03T00:21:47.767Z,4.35
2023-05-03T00:24:14.691Z,4.43
2023-05-03T00:26:41.635Z,2.80
2023-05-03T00:29:08.565Z,3.35
2023-05-03T00:31:35.824Z,3.67
2023-05-03T00:34:02.811Z,2.63
2023-05-03T00:36:31.002Z,2.97
2023-05-03T00:38:57.974Z,3.00
2023-05-03T00:41:24.909Z,3.10
2023-05-03T00:43:51.868Z,2.50
2023-05-03T00:46:19.076Z,2.95
2023-05-03T00:48:49.670Z,3.75
2023-05-03T00:51:18.960Z,2.70
2023-05-03T00:53:46.282Z,3.85
2023-05-03T00:56:19.939Z,3.70
2023-05-03T00:58:47.201Z,3.08
2023-05-03T01:01:15.430Z,3.00
2023-05-03T01:03:42.998Z,2.53
2023-05-03T01:06:27.653Z,3.00
2023-05-03T01:09:27.881Z,3.47
2023-05-03T01:12:12.700Z,3.55
2023-05-03T01:15:02.474Z,2.90
2023-05-03T01:17:35.690Z,2.60
2023-05-03T01:20:08.860Z,3.38
2023-05-03T01:22:57.791Z,3.83
2023-05-03T01:25:26.282Z,3.47
2023-05-03T01:27:53.229Z,5.03
2023-05-03T01:30:24.790Z,2.95
2023-05-03T01:33:13.496Z,5.65
2023-05-03T01:35:56.642Z,6.65
2023-05-03T01:38:23.878Z,6.40
2023-05-03T01:40:53.644Z,2.60
2023-05-03T01:43:22.546Z,3.35
2023-05-03T01:45:50.433Z,4.57
2023-05-03T01:48:19.661Z,3.60
2023-05-03T01:50:46.857Z,4.00
2023-05-03T01:53:14.035Z,3.00
2023-05-03T01:55:42.070Z,3.90
2023-05-03T01:58:09.127Z,4.57
2023-05-03T02:00:37.889Z,4.15
2023-05-03T02:03:05.418Z,4.90
2023-05-03T02:05:32.375Z,4.95
2023-05-03T02:08:00.897Z,4.57
2023-05-03T02:10:27.862Z,4.63
2023-05-03T02:12:55.962Z,3.72
2023-05-03T02:15:23.047Z,3.83
2023-05-03T02:17:50.871Z,5.07
2023-05-03T02:20:18.037Z,3.58
2023-05-03T02:22:44.961Z,4.28
2023-05-03T02:25:11.895Z,4.30
2023-05-03T02:27:38.857Z,3.03
2023-05-03T02:30:07.718Z,4.43
2023-05-03T02:32:40.083Z,4.07
2023-05-03T02:35:08.566Z,4.25
2023-05-03T02:37:35.656Z,4.80
2023-05-03T02:40:09.644Z,4.30
2023-05-03T02:42:36.791Z,3.40
2023-05-03T02:45:05.710Z,5.30
2023-05-03T02:47:32.803Z,4.18
2023-05-03T02:49:59.868Z,5.72
2023-05-03T02:52:27.202Z,4.10
2023-05-03T02:54:54.575Z,4.70
2023-05-03T02:57:21.833Z,4.85
2023-05-03T02:59:49.376Z,3.80
2023-05-03T03:02:16.357Z,4.15
2023-05-03T03:04:43.348Z,4.05
2023-05-03T03:07:10.643Z,4.22
2023-05-03T03:09:37.625Z,4.53
2023-05-03T03:12:05.828Z,3.20
2023-05-03T03:14:33.868Z,4.35
2023-05-03T03:17:03.185Z,4.38
2023-05-03T03:19:30.215Z,3.55
2023-05-03T03:21:57.144Z,4.13
2023-05-03T03:24:26.728Z,3.75
2023-05-03T03:26:53.948Z,4.97
2023-05-03T03:29:21.084Z,3.80
2023-05-03T03:31:48.494Z,3.40
2023-05-03T03:34:16.680Z,3.83
2023-05-03T03:36:43.818Z,4.30
2023-05-03T03:39:11.665Z,3.92
2023-05-03T03:41:39.656Z,5.03
2023-05-03T03:44:07.016Z,3.97
2023-05-03T03:46:34.095Z,4.95
2023-05-03T03:49:01.489Z,3.20
2023-05-03T03:51:31.144Z,4.35
2023-05-03T03:53:58.890Z,5.07
2023-05-03T03:56:28.880Z,3.97
2023-05-03T03:58:56.903Z,4.97
2023-05-03T04:01:25.009Z,4.13
2023-05-03T04:03:52.182Z,4.35
2023-05-03T04:06:19.333Z,4.10
2023-05-03T04:08:49.720Z,3.75
2023-05-03T04:11:17.280Z,4.25
2023-05-03T04:13:50.132Z,3.70
2023-05-03T04:16:17.269Z,3.20
2023-05-03T04:18:45.358Z,3.33
2023-05-03T04:21:12.372Z,4.38
2023-05-03T04:23:40.371Z,4.32
2023-05-03T04:26:14.601Z,4.22
2023-05-03T04:28:52.094Z,3.65
2023-05-03T04:31:21.865Z,4.82
2023-05-03T04:33:52.709Z,4.25
2023-05-03T04:36:25.446Z,5.28
2023-05-03T04:38:53.072Z,4.88
2023-05-03T04:41:20.606Z,5.55
2023-05-03T04:43:48.144Z,7.28
2023-05-03T04:46:15.670Z,6.05
2023-05-03T04:48:46.360Z,5.40
2023-05-03T04:51:13.486Z,4.18
2023-05-03T04:53:41.993Z,5.03
2023-05-03T04:56:13.721Z,4.15
2023-05-03T04:58:41.513Z,4.55
2023-05-03T05:01:08.951Z,4.88
2023-05-03T05:03:36.157Z,4.28
2023-05-03T05:06:11.516Z,4.28
2023-05-03T05:08:40.724Z,8.07
2023-05-03T05:11:12.875Z,4.25
2023-05-03T05:13:39.847Z,6.28
2023-05-03T05:16:07.168Z,6.18
2023-05-03T05:18:35.038Z,5.05
2023-05-03T05:21:04.573Z,5.95
2023-05-03T05:23:33.370Z,5.53
2023-05-03T05:26:00.831Z,4.25
2023-05-03T05:28:31.018Z,4.63
2023-05-03T05:30:58.022Z,5.35
2023-05-03T05:33:25.875Z,6.25
2023-05-03T05:35:53.868Z,5.28
2023-05-03T05:38:22.116Z,5.32
2023-05-03T05:40:50.833Z,6.03
2023-05-03T05:43:17.977Z,5.55
2023-05-03T05:45:46.502Z,5.32
2023-05-03T05:48:14.637Z,6.28
2023-05-03T05:50:43.240Z,6.95
2023-05-03T05:53:12.324Z,7.00
2023-05-03T05:55:44.417Z,9.55
2023-05-03T05:58:13.045Z,5.82
2023-05-03T06:00:49.012Z,5.30
2023-05-03T06:03:16.869Z,6.68
2023-05-03T06:05:44.040Z,9.02
2023-05-03T06:08:11.301Z,7.38
2023-05-03T06:10:38.896Z,5.90
2023-05-03T06:13:05.975Z,6.10
2023-05-03T06:15:34.173Z,6.85
2023-05-03T06:18:01.260Z,6.28
2023-05-03T06:20:28.524Z,6.10
2023-05-03T06:22:56.413Z,6.28
2023-05-03T06:25:23.410Z,6.03
2023-05-03T06:27:51.366Z,5.22
2023-05-03T06:30:23.524Z,5.28
2023-05-03T06:32:51.277Z,6.93
2023-05-03T06:35:19.711Z,6.82
2023-05-03T06:37:46.952Z,6.63
2023-05-03T06:40:14.309Z,7.07
2023-05-03T06:42:41.269Z,5.55
2023-05-03T06:45:22.182Z,5.75
2023-05-03T06:47:50.177Z,6.63
2023-05-03T06:50:17.662Z,5.03
2023-05-03T06:52:44.606Z,6.65
2023-05-03T06:55:11.737Z,4.05
2023-05-03T06:57:41.232Z,7.05
2023-05-03T07:00:09.314Z,5.65
2023-05-03T07:02:37.303Z,6.35
2023-05-03T07:05:05.203Z,4.65
2023-05-03T07:07:33.424Z,5.32
2023-05-03T07:10:00.386Z,5.53
2023-05-03T07:12:28.424Z,5.68
2023-05-03T07:14:55.522Z,4.28
2023-05-03T07:17:23.048Z,5.78
2023-05-03T07:19:51.461Z,3.97
2023-05-03T07:22:24.755Z,4.90
2023-05-03T07:24:55.093Z,4.68
2023-05-03T07:27:22.611Z,5.57
2023-05-03T07:29:49.568Z,4.97
2023-05-03T07:32:16.590Z,3.33
2023-05-03T07:34:43.572Z,6.65
2023-05-03T07:37:10.552Z,5.47
2023-05-03T07:39:37.466Z,3.92
2023-05-03T07:42:04.462Z,4.10
2023-05-03T07:44:31.432Z,3.58
2023-05-03T07:46:58.402Z,4.88
2023-05-03T07:49:25.397Z,3.42
2023-05-03T07:51:52.432Z,6.75
2023-05-03T07:54:19.353Z,7.82
2023-05-03T07:56:46.399Z,4.40
2023-05-03T07:59:13.460Z,6.18
2023-05-03T08:01:40.439Z,4.90
2023-05-03T08:04:07.891Z,6.75
2023-05-03T08:06:35.874Z,4.40
2023-05-03T08:09:04.387Z,5.80
2023-05-03T08:11:31.788Z,4.65
2023-05-03T08:13:58.725Z,5.40
2023-05-03T08:16:26.113Z,6.55
2023-05-03T08:18:53.211Z,7.95
2023-05-03T08:21:21.959Z,5.97
2023-05-03T08:23:48.998Z,5.57
2023-05-03T08:26:15.958Z,7.45
2023-05-03T08:28:42.873Z,4.50
2023-05-03T08:31:09.937Z,6.70
2023-05-03T08:33:37.260Z,4.78
2023-05-03T08:36:04.437Z,5.47
2023-05-03T08:38:32.578Z,5.43
2023-05-03T08:41:11.058Z,9.13
2023-05-03T08:43:44.009Z,7.00
2023-05-03T08:46:14.545Z,5.95
2023-05-03T08:48:43.148Z,5.90
2023-05-03T08:51:11.087Z,5.35
2023-05-03T08:53:38.083Z,7.15
2023-05-03T08:56:16.851Z,6.63
2023-05-03T08:58:44.145Z,5.60
2023-05-03T09:01:11.080Z,5.05
2023-05-03T09:03:38.303Z,5.78
2023-05-03T09:06:25.834Z,5.20
2023-05-03T09:08:54.092Z,5.65
2023-05-03T09:11:30.299Z,8.35
2023-05-03T09:14:12.374Z,4.93
2023-05-03T09:16:41.172Z,7.28
2023-05-03T09:19:11.572Z,4.97
2023-05-03T09:21:44.365Z,5.32
2023-05-03T09:24:17.727Z,3.72
2023-05-03T09:26:47.015Z,4.38
2023-05-03T09:29:35.897Z,6.85
2023-05-03T09:32:08.494Z,4.03
2023-05-03T09:34:36.952Z,7.90
2023-05-03T09:37:04.247Z,4.30
2023-05-03T09:39:31.481Z,5.93
2023-05-03T09:41:58.813Z,5.30
2023-05-03T09:45:01.766Z,7.00
2023-05-03T09:47:31.931Z,5.97
2023-05-03T09:50:00.119Z,7.32
2023-05-03T09:52:29.135Z,5.80
2023-05-03T09:54:56.426Z,4.63
2023-05-03T09:57:23.884Z,4.28
2023-05-03T09:59:51.056Z,5.93
2023-05-03T10:02:18.195Z,6.80
2023-05-03T10:04:53.156Z,7.05
2023-05-03T10:07:23.076Z,6.68
2023-05-03T10:09:50.564Z,4.28
2023-05-03T10:12:19.195Z,5.63
2023-05-03T10:14:48.359Z,3.95
2023-05-03T10:17:48.010Z,5.72
2023-05-03T10:20:33.183Z,4.32
2023-05-03T10:23:06.506Z,3.78
2023-05-03T10:25:36.398Z,5.15
2023-05-03T10:28:03.862Z,4.40
2023-05-03T10:30:34.530Z,6.20
2023-05-03T10:35:48.890Z,3.00
2023-05-03T10:38:19.825Z,5.55
2023-05-03T10:40:46.880Z,6.70
2023-05-03T10:43:29.420Z,2.80
2023-05-03T10:46:04.221Z,6.28
2023-05-03T10:48:35.493Z,5.45
2023-05-03T10:51:39.614Z,4.65
2023-05-03T10:54:07.459Z,5.88
2023-05-03T10:56:46.905Z,2.95
2023-05-03T10:59:13.963Z,4.17
2023-05-03T11:01:42.446Z,3.08
2023-05-03T11:04:41.505Z,3.05
2023-05-03T11:07:10.143Z,2.75
2023-05-03T11:09:37.500Z,2.90
2023-05-03T11:12:06.936Z,2.17
2023-05-03T11:14:33.954Z,3.67
2023-05-03T11:17:01.516Z,2.00
2023-05-03T11:19:29.299Z,3.33
2023-05-03T11:21:57.014Z,2.00
2023-05-03T11:24:24.038Z,2.78
2023-05-03T11:26:51.151Z,1.80
2023-05-03T11:29:18.618Z,4.75
2023-05-03T11:31:45.864Z,1.55
2023-05-03T11:34:14.498Z,2.55
2023-05-03T11:36:42.441Z,4.93
2023-05-03T11:39:10.981Z,3.67
2023-05-03T11:41:38.010Z,2.85
2023-05-03T11:44:16.404Z,1.95
2023-05-03T11:49:19.521Z,1.83
2023-05-03T11:51:49.802Z,4.28
2023-05-03T11:54:24.930Z,4.38
2023-05-03T11:56:58.979Z,1.50
2023-05-03T11:59:39.704Z,1.92
2023-05-03T12:02:09.711Z,1.73
2023-05-03T12:04:41.540Z,1.30
2023-05-03T12:07:12.981Z,1.77
2023-05-03T12:09:41.475Z,1.52
2023-05-03T12:12:10.548Z,1.70
2023-05-03T12:14:59.744Z,1.63
2023-05-03T12:17:44.340Z,2.25
2023-05-03T12:22:57.475Z,2.60
2023-05-03T12:25:27.224Z,2.80
2023-05-03T12:30:33.577Z,4.10
2023-05-03T12:33:04.228Z,1.00
2023-05-03T12:35:34.117Z,1.60
2023-05-03T12:38:04.328Z,1.48
2023-05-03T12:40:34.754Z,3.03
2023-05-03T12:43:03.339Z,3.10
2023-05-03T12:45:34.378Z,1.60
2023-05-03T12:48:02.768Z,4.47
2023-05-03T12:50:32.047Z,1.77
2023-05-03T12:53:02.595Z,1.42
2023-05-03T12:55:35.192Z,1.25
2023-05-03T12:58:39.424Z,2.05
2023-05-03T13:01:37.140Z,1.52
2023-05-03T13:03:43.662Z,2.67
2023-05-03T13:06:14.143Z,2.67
2023-05-03T13:08:49.669Z,1.35
2023-05-03T13:11:19.761Z,1.73
2023-05-03T13:16:14.381Z,1.95
2023-05-03T13:18:42.758Z,2.67
2023-05-03T13:21:10.962Z,2.45
2023-05-03T13:23:38.130Z,1.00
2023-05-03T13:26:06.881Z,2.13
2023-05-03T13:28:33.812Z,0.77
2023-05-03T13:31:00.789Z,2.47
2023-05-03T13:33:29.201Z,2.25
2023-05-03T13:35:56.566Z,1.38
2023-05-03T13:38:23.661Z,2.17
2023-05-03T13:40:51.032Z,1.15
2023-05-03T13:43:17.997Z,2.15
2023-05-03T13:45:45.078Z,1.67
2023-05-03T13:48:18.606Z,1.42
2023-05-03T13:50:46.294Z,2.42
2023-05-03T13:53:13.310Z,1.27
2023-05-03T13:55:43.191Z,0.80
2023-05-03T13:58:10.181Z,1.92
2023-05-03T14:00:37.284Z,1.88
2023-05-03T14:03:04.574Z,1.58
2023-05-03T14:05:31.676Z,1.40
2023-05-03T14:07:59.718Z,2.47
2023-05-03T14:10:27.483Z,1.70
2023-05-03T14:12:54.550Z,2.15
2023-05-03T14:15:21.602Z,2.60
2023-05-03T14:17:48.740Z,1.42
2023-05-03T14:20:17.330Z,2.15
2023-05-03T14:22:45.529Z,1.92
2023-05-03T14:25:12.733Z,2.05
2023-05-03T14:27:40.132Z,1.95
2023-05-03T14:30:09.855Z,4.03
2023-05-03T14:32:36.828Z,1.10
2023-05-03T14:35:03.972Z,2.83
2023-05-03T14:37:31.143Z,4.00
2023-05-03T14:39:58.090Z,2.03
2023-05-03T14:42:25.038Z,1.58
2023-05-03T14:44:52.000Z,3.30
2023-05-03T14:47:19.043Z,1.55
2023-05-03T14:49:46.125Z,1.55
2023-05-03T14:52:13.268Z,3.15
2023-05-03T14:54:40.250Z,1.10
2023-05-03T14:57:07.611Z,1.38
2023-05-03T14:59:35.032Z,1.00
2023-05-03T15:02:02.428Z,0.88
2023-05-03T15:04:29.679Z,1.45
2023-05-03T15:07:02.514Z,1.60
2023-05-03T15:09:33.688Z,1.02
2023-05-03T15:12:01.935Z,0.90
2023-05-03T15:14:29.117Z,4.82
2023-05-03T15:16:56.264Z,3.50
2023-05-03T15:19:23.340Z,1.60
2023-05-03T15:21:52.281Z,1.65
2023-05-03T15:24:19.392Z,4.10
2023-05-03T15:26:49.736Z,2.72
2023-05-03T15:29:16.826Z,3.33
2023-05-03T15:31:44.066Z,3.58
2023-05-03T15:34:12.120Z,2.47
2023-05-03T15:36:40.397Z,2.97
2023-05-03T15:39:07.732Z,3.35
2023-05-03T15:41:34.666Z,1.30
2023-05-03T15:44:05.063Z,9.20
2023-05-03T15:46:33.735Z,2.38
2023-05-03T15:49:01.094Z,3.22
2023-05-03T15:51:29.225Z,2.15
2023-05-03T15:53:56.217Z,4.18
2023-05-03T15:56:23.409Z,1.27
2023-05-03T15:58:50.505Z,1.90
2023-05-03T16:01:18.552Z,1.75
2023-05-03T16:03:46.344Z,2.58
2023-05-03T16:06:17.972Z,1.88
2023-05-03T16:08:45.576Z,1.88
2023-05-03T16:11:13.291Z,1.02
2023-05-03T16:13:40.246Z,1.88
2023-05-03T16:16:07.374Z,2.38
2023-05-03T16:18:34.573Z,1.30
2023-05-03T16:21:02.436Z,2.05
2023-05-03T16:23:29.527Z,0.90
2023-05-03T16:25:56.566Z,0.68
2023-05-03T16:28:23.537Z,1.38
2023-05-03T16:30:50.513Z,2.03
2023-05-03T16:33:18.027Z,1.17
2023-05-03T16:35:44.955Z,1.42
2023-05-03T16:38:11.872Z,2.08
2023-05-03T16:40:40.432Z,2.85
2023-05-03T16:43:07.845Z,0.82
2023-05-03T16:45:34.964Z,2.08
2023-05-03T16:48:04.774Z,3.60
2023-05-03T16:50:33.148Z,1.00
2023-05-03T16:53:00.282Z,1.15
2023-05-03T16:55:27.226Z,1.00
2023-05-03T16:57:54.150Z,1.33
2023-05-03T17:00:21.799Z,1.25
2023-05-03T17:02:49.153Z,1.05
2023-05-03T17:05:16.304Z,1.27
2023-05-03T17:07:43.289Z,0.95
2023-05-03T17:10:10.583Z,2.70
2023-05-03T17:12:37.534Z,0.93
2023-05-03T17:15:05.220Z,2.58
2023-05-03T17:17:32.686Z,2.28
2023-05-03T17:19:59.787Z,1.15
2023-05-03T17:22:26.723Z,1.05
2023-05-03T17:24:55.173Z,1.40
2023-05-03T17:27:24.117Z,1.70
2023-05-03T17:29:51.284Z,2.70
2023-05-03T17:32:18.225Z,1.85
2023-05-03T17:34:45.278Z,0.93
2023-05-03T17:37:12.409Z,2.20
2023-05-03T17:39:39.659Z,1.50
2023-05-03T17:42:06.762Z,2.53
2023-05-03T17:44:34.000Z,1.50
2023-05-03T17:47:01.061Z,2.10
2023-05-03T17:49:28.056Z,1.27
2023-05-03T17:51:55.038Z,3.60
2023-05-03T17:54:22.088Z,2.95
2023-05-03T17:56:49.646Z,1.30
2023-05-03T17:59:16.928Z,0.93
2023-05-03T18:01:43.910Z,0.88
2023-05-03T18:04:10.901Z,1.02
2023-05-03T18:06:37.892Z,1.02
2023-05-03T18:09:07.191Z,1.40
2023-05-03T18:11:34.306Z,1.97
2023-05-03T18:14:01.247Z,1.33
2023-05-03T18:16:28.715Z,1.55
2023-05-03T18:18:55.698Z,1.52
2023-05-03T18:21:23.433Z,3.65
2023-05-03T18:23:50.376Z,2.72
2023-05-03T18:26:17.402Z,1.17
2023-05-03T18:28:44.310Z,1.23
2023-05-03T18:31:11.512Z,2.65
2023-05-03T18:33:40.037Z,0.75
2023-05-03T18:36:11.429Z,0.70
2023-05-03T18:38:41.767Z,1.98
2023-05-03T18:41:13.823Z,1.05
2023-05-03T18:43:42.986Z,2.00
2023-05-03T18:46:10.779Z,2.45
2023-05-03T18:48:38.008Z,0.80
2023-05-03T18:51:05.278Z,2.17
2023-05-03T18:53:34.257Z,1.13
2023-05-03T18:56:02.819Z,1.38
2023-05-03T18:58:31.384Z,1.67
2023-05-03T19:01:00.099Z,1.20
2023-05-03T19:03:30.338Z,1.73
2023-05-03T19:06:03.739Z,1.27
2023-05-03T19:08:31.580Z,1.92
2023-05-03T19:11:10.484Z,1.55
2023-05-03T19:13:37.808Z,1.40
2023-05-03T19:16:05.566Z,1.90
2023-05-03T19:18:32.592Z,3.03
2023-05-03T19:20:59.920Z,1.98
2023-05-03T19:23:27.204Z,2.08
2023-05-03T19:25:54.271Z,1.45
2023-05-03T19:28:21.322Z,1.15
2023-05-03T19:30:51.543Z,1.17
2023-05-03T19:33:19.870Z,1.50
2023-05-03T19:35:47.456Z,2.17
2023-05-03T19:38:14.596Z,1.08
2023-05-03T19:40:41.535Z,2.42
2023-05-03T19:43:08.551Z,1.58
2023-05-03T19:45:42.103Z,1.38
2023-05-03T19:48:10.254Z,2.42
2023-05-03T19:50:37.419Z,1.15
2023-05-03T19:53:04.393Z,2.03
2023-05-03T19:55:31.324Z,2.63
2023-05-03T19:57:58.321Z,2.15
2023-05-03T20:00:26.946Z,1.20
2023-05-03T20:02:54.602Z,1.02
2023-05-03T20:05:21.985Z,1.48
2023-05-03T20:07:49.113Z,2.72
2023-05-03T20:10:16.136Z,1.35
2023-05-03T20:12:43.095Z,1.33
2023-05-03T20:15:11.338Z,1.05
2023-05-03T20:17:38.619Z,2.67
2023-05-03T20:20:12.705Z,0.95
2023-05-03T20:22:39.680Z,1.50
2023-05-03T20:25:07.444Z,2.67
2023-05-03T20:27:34.375Z,1.35
2023-05-03T20:30:01.537Z,2.33
2023-05-03T20:32:28.603Z,2.80
2023-05-03T20:34:55.759Z,1.48
2023-05-03T20:37:22.775Z,1.27
2023-05-03T20:39:49.716Z,2.88
2023-05-03T20:42:16.641Z,2.63
2023-05-03T20:44:43.674Z,2.28
2023-05-03T20:47:10.636Z,3.42
2023-05-03T20:49:39.927Z,1.58
2023-05-03T20:52:06.888Z,2.53
2023-05-03T20:54:33.913Z,1.42
2023-05-03T20:57:01.452Z,3.05
2023-05-03T20:59:29.027Z,3.35
2023-05-03T21:01:56.463Z,2.53
2023-05-03T21:04:26.611Z,1.85
2023-05-03T21:06:53.664Z,0.98
2023-05-03T21:09:20.689Z,3.88
2023-05-03T21:11:47.660Z,1.10
2023-05-03T21:14:14.760Z,2.65
2023-05-03T21:16:41.820Z,1.60
2023-05-03T21:19:08.842Z,1.35
2023-05-03T21:21:35.754Z,1.20
2023-05-03T21:24:02.797Z,2.35
2023-05-03T21:26:30.378Z,2.00
2023-05-03T21:28:57.699Z,1.83
2023-05-03T21:31:24.773Z,0.98
2023-05-03T21:33:51.803Z,2.42
2023-05-03T21:36:18.850Z,1.83
2023-05-03T21:38:45.797Z,3.97
2023-05-03T21:41:13.554Z,1.67
2023-05-03T21:43:40.519Z,1.20
2023-05-03T21:46:08.465Z,1.25
2023-05-03T21:48:37.226Z,2.67
2023-05-03T21:51:05.719Z,1.50
2023-05-03T21:53:33.323Z,1.67
2023-05-03T21:56:00.389Z,1.20
2023-05-03T21:58:27.437Z,1.40
2023-05-03T22:00:54.433Z,2.42
2023-05-03T22:03:21.422Z,2.10
2023-05-03T22:05:50.386Z,3.05
2023-05-03T22:08:18.382Z,3.67
2023-05-03T22:10:46.343Z,1.27
2023-05-03T22:13:13.449Z,1.52
2023-05-03T22:15:42.913Z,1.45
2023-05-03T22:18:10.149Z,1.70
2023-05-03T22:20:37.073Z,2.65
2023-05-03T22:23:04.488Z,3.40
2023-05-03T22:25:32.391Z,3.45
2023-05-03T22:27:59.589Z,5.97
2023-05-03T22:30:27.338Z,3.38
2023-05-03T22:32:54.303Z,1.05
2023-05-03T22:35:21.319Z,1.50
2023-05-03T22:37:48.298Z,2.80
2023-05-03T22:40:15.261Z,2.35
2023-05-03T22:42:42.385Z,2.15
2023-05-03T22:45:09.897Z,1.10
2023-05-03T22:47:36.878Z,3.50
2023-05-03T22:50:04.361Z,1.80
2023-05-03T22:52:32.044Z,1.35
2023-05-03T22:55:00.441Z,1.60
2023-05-03T22:57:27.403Z,1.40
2023-05-03T22:59:54.508Z,2.22
2023-05-03T23:02:22.050Z,1.55
2023-05-03T23:04:49.021Z,2.50
2023-05-03T23:07:15.962Z,1.98
2023-05-03T23:09:42.878Z,2.17
2023-05-03T23:12:09.949Z,3.03
2023-05-03T23:14:38.903Z,2.00
2023-05-03T23:17:05.877Z,3.03
2023-05-03T23:19:33.733Z,1.95
2023-05-03T23:22:00.669Z,1.30
2023-05-03T23:24:27.579Z,2.75
2023-05-03T23:26:54.504Z,1.63
2023-05-03T23:29:22.260Z,2.40
2023-05-03T23:31:49.593Z,2.20
2023-05-03T23:34:17.057Z,2.47
2023-05-03T23:36:43.983Z,1.27
2023-05-03T23:39:11.060Z,1.42
2023-05-03T23:41:37.979Z,2.47
2023-05-03T23:44:05.115Z,1.40
2023-05-03T23:46:33.729Z,2.63
2023-05-03T23:49:00.838Z,1.80
2023-05-03T23:51:27.826Z,1.92
2023-05-03T23:53:54.750Z,1.77
2023-05-03T23:56:21.693Z,2.50
2023-05-03T23:58:48.710Z,1.92
